createdAt,value
2023-06-02T00:01:33.705Z,6.10
2023-06-02T00:04:04.143Z,5.90
2023-06-02T00:06:35.476Z,5.70
2023-06-02T00:09:06.467Z,5.90
2023-06-02T00:11:39.797Z,6.90
2023-06-02T00:16:47.561Z,6.80
2023-06-02T00:19:16.401Z,7.10
2023-06-02T00:21:47.514Z,6.50
2023-06-02T00:24:16.545Z,5.90
2023-06-02T00:26:44.945Z,5.60
2023-06-02T00:29:13.337Z,5.90
2023-06-02T00:31:41.780Z,5.80
2023-06-02T00:34:10.179Z,5.20
2023-06-02T00:36:38.765Z,5.90
2023-06-02T00:39:07.560Z,5.60
2023-06-02T00:41:35.893Z,5.80
2023-06-02T00:44:04.812Z,5.80
2023-06-02T00:46:33.241Z,5.20
2023-06-02T00:49:01.623Z,6.00
2023-06-02T00:51:30.685Z,5.30
2023-06-02T00:53:59.157Z,5.70
2023-06-02T00:56:27.461Z,5.90
2023-06-02T00:58:55.995Z,5.10
2023-06-02T01:01:24.549Z,4.90
2023-06-02T01:03:53.259Z,4.80
2023-06-02T01:06:35.999Z,5.60
2023-06-02T01:09:06.734Z,4.90
2023-06-02T01:11:35.730Z,4.90
2023-06-02T01:14:04.489Z,5.00
2023-06-02T01:16:34.099Z,5.90
2023-06-02T01:19:03.037Z,5.40
2023-06-02T01:21:38.728Z,5.70
2023-06-02T01:24:07.641Z,5.90
2023-06-02T01:26:35.925Z,5.60
2023-06-02T01:29:05.568Z,5.20
2023-06-02T01:31:41.405Z,5.10
2023-06-02T01:34:22.685Z,5.40
2023-06-02T01:36:56.877Z,4.90
2023-06-02T01:39:28.843Z,4.90
2023-06-02T01:42:01.686Z,5.50
2023-06-02T01:44:31.899Z,5.70
2023-06-02T01:47:01.380Z,5.90
2023-06-02T01:49:30.246Z,5.90
2023-06-02T01:51:58.509Z,5.70
2023-06-02T01:54:26.845Z,5.70
2023-06-02T01:56:56.245Z,5.90
2023-06-02T01:59:24.688Z,5.80
2023-06-02T02:01:52.987Z,6.30
2023-06-02T02:04:21.541Z,7.20
2023-06-02T02:06:50.916Z,6.50
2023-06-02T02:09:19.569Z,6.90
2023-06-02T02:11:47.846Z,7.00
2023-06-02T02:14:16.072Z,6.30
2023-06-02T02:16:45.854Z,6.30
2023-06-02T02:19:14.240Z,6.60
2023-06-02T02:21:42.704Z,6.30
2023-06-02T02:24:11.057Z,7.30
2023-06-02T02:26:40.030Z,7.10
2023-06-02T02:29:08.250Z,7.30
2023-06-02T02:31:36.837Z,7.90
2023-06-02T02:34:05.045Z,7.90
2023-06-02T02:36:34.628Z,7.20
2023-06-02T02:39:04.557Z,7.20
2023-06-02T02:41:32.828Z,6.90
2023-06-02T02:44:01.950Z,6.20
2023-06-02T02:46:30.668Z,6.50
2023-06-02T02:48:58.997Z,6.90
2023-06-02T02:51:27.468Z,6.70
2023-06-02T02:53:55.877Z,6.70
2023-06-02T02:56:24.295Z,6.40
2023-06-02T02:58:52.657Z,6.80
2023-06-02T03:01:20.890Z,7.10
2023-06-02T03:03:49.434Z,5.80
2023-06-02T03:06:19.726Z,7.00
2023-06-02T03:08:48.935Z,5.80
2023-06-02T03:11:17.228Z,6.70
2023-06-02T03:13:45.531Z,6.20
2023-06-02T03:16:14.532Z,6.10
2023-06-02T03:18:42.913Z,6.30
2023-06-02T03:21:11.497Z,6.60
2023-06-02T03:23:41.661Z,6.60
2023-06-02T03:26:12.943Z,6.90
2023-06-02T03:28:44.026Z,6.00
2023-06-02T03:31:13.072Z,5.70
2023-06-02T03:33:41.621Z,5.80
2023-06-02T03:36:10.866Z,5.80
2023-06-02T03:38:40.718Z,6.00
2023-06-02T03:41:09.181Z,5.30
2023-06-02T03:43:37.514Z,6.40
2023-06-02T03:46:06.139Z,6.50
2023-06-02T03:48:34.752Z,6.40
2023-06-02T03:51:04.614Z,6.40
2023-06-02T03:53:33.361Z,5.60
2023-06-02T03:56:01.896Z,5.40
2023-06-02T03:58:31.121Z,5.80
2023-06-02T04:00:59.595Z,5.80
2023-06-02T04:03:30.423Z,5.70
2023-06-02T04:05:58.911Z,5.50
2023-06-02T04:08:27.763Z,5.80
2023-06-02T04:10:56.285Z,6.20
2023-06-02T04:13:24.630Z,6.30
2023-06-02T04:15:52.907Z,5.80
2023-06-02T04:18:21.854Z,5.60
2023-06-02T04:20:50.234Z,5.90
2023-06-02T04:23:19.000Z,5.60
2023-06-02T04:25:47.567Z,5.30
2023-06-02T04:28:17.035Z,5.70
2023-06-02T04:30:45.331Z,5.70
2023-06-02T04:33:14.419Z,6.00
2023-06-02T04:35:43.286Z,5.70
2023-06-02T04:38:13.077Z,6.10
2023-06-02T04:40:43.267Z,5.30
2023-06-02T04:43:12.571Z,5.50
2023-06-02T04:45:48.436Z,5.40
2023-06-02T04:48:20.050Z,5.40
2023-06-02T04:50:48.348Z,5.70
2023-06-02T04:53:16.705Z,6.30
2023-06-02T04:55:46.436Z,5.50
2023-06-02T04:58:16.192Z,6.10
2023-06-02T05:00:45.001Z,5.60
2023-06-02T05:03:14.365Z,5.40
2023-06-02T05:05:42.835Z,5.20
2023-06-02T05:08:12.646Z,5.00
2023-06-02T05:10:41.384Z,5.50
2023-06-02T05:13:09.837Z,5.60
2023-06-02T05:15:39.804Z,5.80
2023-06-02T05:18:08.598Z,5.10
2023-06-02T05:20:37.290Z,5.00
2023-06-02T05:23:06.114Z,4.80
2023-06-02T05:25:34.505Z,5.10
2023-06-02T05:28:03.007Z,4.80
2023-06-02T05:30:31.901Z,5.10
2023-06-02T05:33:00.278Z,4.90
2023-06-02T05:35:29.545Z,5.30
2023-06-02T05:37:58.863Z,4.90
2023-06-02T05:40:27.151Z,4.90
2023-06-02T05:42:55.619Z,4.90
2023-06-02T05:45:24.490Z,4.60
2023-06-02T05:47:53.642Z,5.00
2023-06-02T05:50:23.831Z,4.70
2023-06-02T05:52:52.235Z,5.10
2023-06-02T05:55:20.533Z,5.10
2023-06-02T05:57:50.320Z,4.90
2023-06-02T06:00:19.223Z,5.40
2023-06-02T06:02:48.774Z,5.00
2023-06-02T06:05:20.188Z,4.40
2023-06-02T06:07:49.111Z,4.50
2023-06-02T06:10:17.776Z,6.00
2023-06-02T06:12:46.419Z,4.90
2023-06-02T06:15:16.666Z,5.40
2023-06-02T06:17:53.083Z,4.40
2023-06-02T06:20:22.145Z,4.60
2023-06-02T06:22:51.057Z,4.40
2023-06-02T06:25:21.539Z,4.70
2023-06-02T06:27:51.718Z,4.50
2023-06-02T06:30:23.306Z,4.50
2023-06-02T06:32:55.995Z,5.10
2023-06-02T06:35:25.360Z,4.90
2023-06-02T06:37:54.359Z,4.60
2023-06-02T06:40:22.619Z,4.30
2023-06-02T06:42:51.017Z,4.80
2023-06-02T06:45:25.377Z,4.60
2023-06-02T06:47:53.957Z,4.60
2023-06-02T06:50:23.252Z,4.50
2023-06-02T06:52:51.603Z,4.50
2023-06-02T06:55:19.930Z,4.40
2023-06-02T06:57:48.293Z,4.60
2023-06-02T07:00:18.109Z,4.80
2023-06-02T07:02:49.490Z,6.50
2023-06-02T07:05:18.437Z,5.00
2023-06-02T07:07:48.146Z,5.70
2023-06-02T07:10:16.598Z,5.40
2023-06-02T07:12:44.838Z,4.90
2023-06-02T07:15:13.406Z,4.90
2023-06-02T07:17:42.811Z,4.50
2023-06-02T07:20:12.824Z,4.60
2023-06-02T07:22:41.560Z,5.30
2023-06-02T07:25:10.228Z,4.20
2023-06-02T07:27:38.785Z,5.50
2023-06-02T07:30:08.464Z,4.60
2023-06-02T07:32:36.957Z,4.50
2023-06-02T07:35:05.882Z,5.00
2023-06-02T07:37:34.088Z,4.70
2023-06-02T07:40:02.380Z,4.70
2023-06-02T07:42:30.780Z,4.70
2023-06-02T07:44:59.056Z,4.70
2023-06-02T07:47:27.553Z,5.70
2023-06-02T07:49:55.879Z,5.00
2023-06-02T07:52:24.889Z,5.00
2023-06-02T07:54:53.176Z,4.80
2023-06-02T07:57:21.502Z,5.20
2023-06-02T07:59:50.207Z,4.50
2023-06-02T08:02:18.598Z,5.20
2023-06-02T08:04:47.081Z,5.10
2023-06-02T08:07:15.953Z,4.60
2023-06-02T08:09:44.282Z,5.50
2023-06-02T08:12:12.558Z,4.40
2023-06-02T08:14:41.563Z,4.80
2023-06-02T08:17:12.287Z,5.00
2023-06-02T08:19:40.574Z,5.20
2023-06-02T08:22:11.112Z,5.40
2023-06-02T08:24:39.588Z,5.10
2023-06-02T08:27:09.680Z,5.50
2023-06-02T08:29:37.997Z,6.10
2023-06-02T08:32:08.199Z,5.00
2023-06-02T08:34:37.861Z,5.10
2023-06-02T08:37:06.496Z,5.20
2023-06-02T08:39:36.303Z,5.10
2023-06-02T08:42:06.592Z,4.80
2023-06-02T08:44:34.741Z,5.30
2023-06-02T08:47:04.534Z,5.00
2023-06-02T08:49:36.728Z,5.00
2023-06-02T08:52:11.404Z,4.80
2023-06-02T08:54:41.453Z,4.70
2023-06-02T08:57:17.704Z,5.00
2023-06-02T08:59:47.385Z,4.70
2023-06-02T09:02:17.422Z,5.60
2023-06-02T09:04:45.907Z,4.90
2023-06-02T09:07:14.187Z,4.60
2023-06-02T09:09:44.505Z,4.10
2023-06-02T09:12:14.764Z,4.70
2023-06-02T09:14:43.109Z,5.10
2023-06-02T09:17:31.363Z,4.80
2023-06-02T09:20:02.576Z,4.30
2023-06-02T09:22:31.741Z,4.80
2023-06-02T09:25:00.312Z,4.80
2023-06-02T09:27:29.488Z,4.70
2023-06-02T09:30:04.263Z,5.60
2023-06-02T09:32:38.230Z,6.10
2023-06-02T09:35:08.464Z,5.30
2023-06-02T09:37:58.566Z,5.40
2023-06-02T09:40:28.871Z,6.10
2023-06-02T09:42:57.347Z,5.70
2023-06-02T09:45:25.924Z,5.60
2023-06-02T09:47:54.736Z,6.00
2023-06-02T09:50:37.887Z,5.10
2023-06-02T09:53:12.939Z,4.10
2023-06-02T09:55:41.592Z,4.90
2023-06-02T09:58:09.989Z,4.20
2023-06-02T10:00:38.363Z,3.60
2023-06-02T10:03:08.489Z,4.80
2023-06-02T10:05:40.654Z,5.00
2023-06-02T10:08:09.002Z,4.60
2023-06-02T10:11:01.905Z,14.60
2023-06-02T10:13:48.368Z,5.90
2023-06-02T10:16:38.830Z,4.80
2023-06-02T10:19:27.338Z,4.90
2023-06-02T10:22:25.663Z,4.90
2023-06-02T10:25:13.488Z,4.40
2023-06-02T10:27:45.302Z,6.80
2023-06-02T10:30:20.946Z,5.90
2023-06-02T10:32:50.971Z,6.50
2023-06-02T10:35:20.755Z,5.30
2023-06-02T10:38:24.926Z,6.50
2023-06-02T10:40:53.446Z,6.50
2023-06-02T10:43:22.568Z,16.40
2023-06-02T10:45:51.447Z,13.10
2023-06-02T10:48:40.905Z,11.40
2023-06-02T10:51:10.866Z,11.50
2023-06-02T10:54:03.437Z,9.10
2023-06-02T10:59:11.232Z,5.70
2023-06-02T11:01:47.820Z,5.40
2023-06-02T11:04:31.377Z,5.10
2023-06-02T11:07:36.032Z,5.20
2023-06-02T11:10:06.230Z,4.50
2023-06-02T11:13:03.968Z,5.00
2023-06-02T11:15:32.315Z,4.20
2023-06-02T11:18:03.156Z,4.10
2023-06-02T11:20:35.950Z,4.20
2023-06-02T11:23:08.166Z,3.80
2023-06-02T11:28:05.099Z,4.10
2023-06-02T11:30:33.361Z,4.70
2023-06-02T11:33:01.705Z,4.00
2023-06-02T11:35:30.266Z,3.90
2023-06-02T11:38:09.433Z,3.60
2023-06-02T11:40:38.962Z,4.10
2023-06-02T11:43:07.353Z,3.50
2023-06-02T11:45:37.751Z,4.20
2023-06-02T11:48:12.591Z,4.20
2023-06-02T11:50:41.315Z,4.30
2023-06-02T11:53:14.669Z,4.20
2023-06-02T11:55:43.526Z,4.80
2023-06-02T11:58:22.030Z,4.30
2023-06-02T12:00:52.313Z,4.10
2023-06-02T12:03:21.207Z,4.10
2023-06-02T12:05:51.145Z,4.20
2023-06-02T12:08:23.960Z,3.90
2023-06-02T12:10:53.360Z,4.10
2023-06-02T12:13:32.792Z,3.80
2023-06-02T12:16:21.801Z,4.10
2023-06-02T12:18:50.593Z,3.60
2023-06-02T12:21:27.883Z,3.90
2023-06-02T12:23:58.847Z,4.70
2023-06-02T12:26:28.202Z,3.80
2023-06-02T12:28:57.849Z,4.10
2023-06-02T12:31:26.226Z,3.60
2023-06-02T12:33:54.840Z,3.70
2023-06-02T12:36:23.573Z,3.40
2023-06-02T12:38:51.943Z,3.10
2023-06-02T12:41:20.287Z,3.40
2023-06-02T12:43:48.698Z,3.40
2023-06-02T12:46:17.967Z,5.20
2023-06-02T12:48:46.788Z,3.40
2023-06-02T12:51:16.605Z,3.00
2023-06-02T12:53:45.027Z,3.30
2023-06-02T12:56:15.064Z,3.40
2023-06-02T12:58:44.034Z,3.10
2023-06-02T13:01:12.447Z,3.00
2023-06-02T13:03:43.668Z,3.70
2023-06-02T13:06:13.385Z,3.40
2023-06-02T13:08:42.059Z,3.10
2023-06-02T13:11:10.903Z,3.00
2023-06-02T13:13:39.777Z,3.60
2023-06-02T13:16:09.215Z,3.10
2023-06-02T13:18:38.033Z,3.20
2023-06-02T13:21:06.477Z,3.20
2023-06-02T13:23:35.755Z,3.30
2023-06-02T13:26:04.660Z,3.00
2023-06-02T13:28:35.309Z,3.30
2023-06-02T13:31:05.044Z,3.40
2023-06-02T13:33:35.247Z,3.50
2023-06-02T13:36:03.975Z,3.00
2023-06-02T13:38:32.451Z,3.80
2023-06-02T13:41:00.682Z,4.60
2023-06-02T13:43:28.927Z,3.10
2023-06-02T13:45:57.416Z,3.40
2023-06-02T13:48:25.872Z,3.80
2023-06-02T13:50:54.322Z,3.10
2023-06-02T13:53:22.666Z,3.40
2023-06-02T13:55:50.989Z,3.20
2023-06-02T13:58:19.480Z,3.30
2023-06-02T14:00:47.966Z,4.30
2023-06-02T14:03:16.346Z,3.20
2023-06-02T14:05:49.084Z,3.50
2023-06-02T14:08:19.798Z,3.80
2023-06-02T14:10:49.222Z,3.30
2023-06-02T14:13:17.734Z,3.30
2023-06-02T14:15:46.155Z,3.10
2023-06-02T14:18:14.471Z,4.10
2023-06-02T14:20:42.922Z,3.30
2023-06-02T14:23:11.275Z,6.50
2023-06-02T14:25:39.695Z,4.40
2023-06-02T14:28:07.944Z,3.90
2023-06-02T14:30:36.427Z,3.80
2023-06-02T14:33:04.834Z,4.20
2023-06-02T14:35:33.371Z,4.80
2023-06-02T14:38:01.744Z,3.50
2023-06-02T14:40:30.008Z,4.90
2023-06-02T14:42:58.330Z,4.10
2023-06-02T14:45:26.667Z,3.60
2023-06-02T14:47:56.522Z,3.60
2023-06-02T14:50:25.053Z,5.30
2023-06-02T14:52:55.140Z,3.50
2023-06-02T14:55:23.455Z,4.30
2023-06-02T14:57:52.155Z,4.00
2023-06-02T15:00:20.423Z,3.60
2023-06-02T15:02:48.904Z,3.80
2023-06-02T15:05:17.793Z,4.10
2023-06-02T15:07:46.036Z,4.10
2023-06-02T15:10:14.388Z,5.10
2023-06-02T15:12:42.870Z,3.70
2023-06-02T15:15:11.444Z,3.10
2023-06-02T15:17:39.815Z,2.90
2023-06-02T15:20:08.694Z,3.20
2023-06-02T15:22:37.006Z,3.20
2023-06-02T15:25:05.899Z,3.30
2023-06-02T15:27:36.453Z,3.30
2023-06-02T15:30:05.508Z,3.30
2023-06-02T15:32:34.007Z,3.20
2023-06-02T15:35:04.076Z,3.10
2023-06-02T15:37:32.308Z,3.60
2023-06-02T15:40:00.781Z,4.10
2023-06-02T15:42:29.098Z,4.20
2023-06-02T15:44:57.344Z,4.20
2023-06-02T15:47:26.321Z,5.20
2023-06-02T15:49:54.608Z,4.00
2023-06-02T15:52:23.124Z,4.20
2023-06-02T15:54:51.573Z,5.10
2023-06-02T15:57:20.207Z,4.30
2023-06-02T15:59:48.553Z,4.00
2023-06-02T16:02:17.051Z,3.30
2023-06-02T16:04:45.492Z,3.90
2023-06-02T16:07:14.081Z,3.60
2023-06-02T16:09:42.643Z,3.20
2023-06-02T16:12:11.072Z,4.10
2023-06-02T16:14:39.649Z,5.30
2023-06-02T16:17:07.974Z,8.90
2023-06-02T16:19:36.364Z,6.20
2023-06-02T16:22:04.867Z,4.40
2023-06-02T16:24:33.452Z,4.50
2023-06-02T16:27:01.774Z,4.50
2023-06-02T16:29:30.290Z,8.00
2023-06-02T16:32:00.138Z,5.30
2023-06-02T16:34:28.678Z,3.50
2023-06-02T16:36:56.876Z,4.30
2023-06-02T16:39:25.547Z,3.30
2023-06-02T16:41:53.985Z,4.20
2023-06-02T16:44:24.410Z,6.20
2023-06-02T16:46:54.181Z,5.00
2023-06-02T16:49:24.586Z,5.00
2023-06-02T16:51:53.290Z,4.30
2023-06-02T16:54:21.623Z,3.60
2023-06-02T16:56:50.233Z,3.40
2023-06-02T16:59:18.538Z,3.50
2023-06-02T17:01:47.860Z,9.80
2023-06-02T17:04:17.940Z,7.50
2023-06-02T17:06:46.396Z,14.10
2023-06-02T17:09:17.080Z,5.60
2023-06-02T17:11:46.537Z,4.10
2023-06-02T17:14:16.409Z,4.00
2023-06-02T17:16:44.850Z,4.30
2023-06-02T17:19:13.192Z,4.60
2023-06-02T17:21:41.589Z,4.40
2023-06-02T17:24:12.315Z,5.50
2023-06-02T17:26:43.482Z,3.80
2023-06-02T17:29:14.270Z,4.10
2023-06-02T17:31:42.555Z,4.50
2023-06-02T17:34:11.002Z,4.50
2023-06-02T17:36:39.290Z,4.00
2023-06-02T17:39:07.677Z,5.80
2023-06-02T17:41:36.034Z,9.60
2023-06-02T17:44:04.708Z,6.90
2023-06-02T17:46:33.771Z,5.30
2023-06-02T17:49:02.163Z,11.20
2023-06-02T17:51:30.639Z,9.20
2023-06-02T17:53:58.956Z,5.80
2023-06-02T17:56:28.078Z,4.90
2023-06-02T17:58:58.668Z,6.00
2023-06-02T18:01:27.209Z,5.30
2023-06-02T18:03:55.578Z,5.30
2023-06-02T18:06:23.885Z,8.60
2023-06-02T18:08:52.342Z,8.90
2023-06-02T18:11:21.197Z,9.40
2023-06-02T18:13:49.469Z,8.70
2023-06-02T18:16:17.791Z,9.40
2023-06-02T18:18:46.618Z,8.30
2023-06-02T18:21:14.894Z,8.90
2023-06-02T18:23:43.191Z,8.90
2023-06-02T18:26:11.897Z,9.20
2023-06-02T18:28:40.240Z,8.70
2023-06-02T18:31:08.556Z,9.00
2023-06-02T18:33:36.922Z,8.80
2023-06-02T18:36:05.236Z,8.90
2023-06-02T18:38:33.567Z,9.00
2023-06-02T18:41:02.321Z,9.30
2023-06-02T18:43:30.985Z,9.30
2023-06-02T18:45:59.446Z,10.00
2023-06-02T18:48:27.828Z,9.70
2023-06-02T18:50:56.527Z,9.10
2023-06-02T18:53:25.253Z,10.40
2023-06-02T18:55:53.655Z,9.80
2023-06-02T18:58:22.829Z,10.10
2023-06-02T19:00:51.182Z,15.50
2023-06-02T19:03:20.251Z,22.90
2023-06-02T19:05:49.694Z,21.70
2023-06-02T19:08:18.057Z,19.70
2023-06-02T19:10:47.113Z,18.90
2023-06-02T19:13:16.106Z,20.50
2023-06-02T19:15:44.736Z,22.30
2023-06-02T19:18:14.378Z,22.40
2023-06-02T19:20:42.869Z,20.80
2023-06-02T19:23:12.257Z,24.40
2023-06-02T19:25:40.684Z,16.10
2023-06-02T19:28:09.047Z,20.10
2023-06-02T19:30:37.538Z,17.60
2023-06-02T19:33:05.937Z,16.40
2023-06-02T19:35:37.091Z,15.00
2023-06-02T19:38:05.663Z,14.10
2023-06-02T19:40:34.209Z,13.70
2023-06-02T19:43:02.485Z,12.00
2023-06-02T19:45:30.844Z,12.00
2023-06-02T19:47:59.951Z,12.70
2023-06-02T19:50:28.394Z,12.40
2023-06-02T19:52:56.675Z,11.80
2023-06-02T19:55:26.807Z,11.40
2023-06-02T19:57:55.753Z,13.80
2023-06-02T20:00:24.194Z,11.30
2023-06-02T20:02:52.571Z,11.60
2023-06-02T20:05:22.818Z,11.20
2023-06-02T20:07:51.131Z,9.50
2023-06-02T20:10:19.491Z,8.60
2023-06-02T20:12:47.801Z,9.00
2023-06-02T20:15:16.119Z,8.00
2023-06-02T20:17:44.486Z,8.50
2023-06-02T20:20:14.339Z,9.70
2023-06-02T20:22:43.003Z,10.40
2023-06-02T20:25:11.825Z,11.10
2023-06-02T20:27:40.677Z,10.00
2023-06-02T20:30:09.378Z,9.90
2023-06-02T20:32:37.965Z,8.80
2023-06-02T20:35:07.581Z,9.40
2023-06-02T20:37:37.390Z,9.10
2023-06-02T20:40:07.304Z,8.80
2023-06-02T20:42:35.565Z,9.60
2023-06-02T20:45:04.189Z,10.20
2023-06-02T20:47:32.752Z,11.60
2023-06-02T20:50:01.121Z,12.20
2023-06-02T20:52:29.489Z,11.40
2023-06-02T20:54:57.783Z,11.60
2023-06-02T20:57:26.057Z,12.10
2023-06-02T20:59:54.347Z,12.60
2023-06-02T21:02:24.664Z,15.20
2023-06-02T21:04:53.054Z,13.40
2023-06-02T21:07:21.292Z,14.20
2023-06-02T21:09:49.595Z,13.70
2023-06-02T21:12:17.835Z,14.60
2023-06-02T21:14:46.081Z,14.10
2023-06-02T21:17:14.430Z,12.60
2023-06-02T21:19:42.812Z,11.10
2023-06-02T21:22:11.402Z,11.10
2023-06-02T21:24:39.736Z,9.80
2023-06-02T21:27:08.148Z,8.90
2023-06-02T21:29:36.782Z,6.90
2023-06-02T21:32:05.950Z,5.20
2023-06-02T21:34:34.263Z,4.90
2023-06-02T21:37:04.358Z,5.40
2023-06-02T21:39:32.943Z,6.10
2023-06-02T21:42:01.199Z,5.80
2023-06-02T21:44:29.584Z,6.30
2023-06-02T21:46:57.847Z,8.20
2023-06-02T21:49:26.177Z,7.70
2023-06-02T21:51:54.692Z,6.20
2023-06-02T21:54:22.908Z,6.40
2023-06-02T21:56:51.211Z,6.50
2023-06-02T21:59:19.556Z,6.00
2023-06-02T22:01:47.876Z,6.10
2023-06-02T22:04:16.128Z,5.90
2023-06-02T22:06:44.572Z,5.90
2023-06-02T22:09:12.810Z,6.30
2023-06-02T22:11:41.193Z,6.10
2023-06-02T22:14:09.391Z,6.20
2023-06-02T22:16:37.746Z,6.10
2023-06-02T22:19:07.567Z,6.70
2023-06-02T22:21:55.222Z,5.80
2023-06-02T22:24:28.380Z,5.80
2023-06-02T22:29:25.604Z,6.00
2023-06-02T22:31:53.996Z,5.30
2023-06-02T22:34:22.484Z,6.00
2023-06-02T22:36:51.061Z,5.70
2023-06-02T22:39:19.339Z,5.70
2023-06-02T22:41:47.725Z,5.10
2023-06-02T22:44:16.348Z,4.70
2023-06-02T22:46:44.717Z,5.60
2023-06-02T22:49:13.001Z,5.10
2023-06-02T22:51:41.482Z,5.20
2023-06-02T22:54:09.778Z,5.10
2023-06-02T22:56:38.184Z,5.50
2023-06-02T22:59:06.492Z,6.20
2023-06-02T23:01:34.917Z,6.70
2023-06-02T23:04:03.359Z,6.80
2023-06-02T23:06:31.602Z,6.00
2023-06-02T23:09:00.092Z,6.00
2023-06-02T23:11:28.518Z,6.30
2023-06-02T23:13:56.836Z,6.90
2023-06-02T23:16:25.215Z,6.60
2023-06-02T23:18:53.567Z,6.70
2023-06-02T23:21:22.197Z,7.50
2023-06-02T23:23:51.904Z,7.20
2023-06-02T23:26:20.453Z,7.20
2023-06-02T23:28:48.861Z,7.30
2023-06-02T23:31:17.083Z,7.30
2023-06-02T23:33:45.471Z,6.90
2023-06-02T23:36:13.793Z,6.40
2023-06-02T23:38:42.131Z,6.00
2023-06-02T23:41:10.551Z,5.70
2023-06-02T23:43:38.946Z,6.90
2023-06-02T23:46:07.230Z,5.80
2023-06-02T23:48:36.747Z,5.70
2023-06-02T23:51:05.402Z,6.10
2023-06-02T23:53:35.114Z,5.60
2023-06-02T23:56:04.024Z,5.30
2023-06-02T23:58:32.476Z,5.50
